createdAt,value
2017-06-25T00:00:47.256Z,6.50
2017-06-25T00:03:15.903Z,6.33
2017-06-25T00:05:44.132Z,6.30
2017-06-25T00:08:12.492Z,6.87
2017-06-25T00:10:40.743Z,6.67
2017-06-25T00:13:08.976Z,6.70
2017-06-25T00:15:37.251Z,6.37
2017-06-25T00:18:05.484Z,6.10
2017-06-25T00:20:33.715Z,6.50
2017-06-25T00:23:01.980Z,6.20
2017-06-25T00:25:30.220Z,6.50
2017-06-25T00:27:58.850Z,6.73
2017-06-25T00:30:27.151Z,6.90
2017-06-25T00:32:55.383Z,6.20
2017-06-25T00:35:23.624Z,7.60
2017-06-25T00:37:52.560Z,6.70
2017-06-25T00:40:20.779Z,7.00
2017-06-25T00:42:49.055Z,6.53
2017-06-25T00:45:17.335Z,7.60
2017-06-25T00:47:45.959Z,8.27
2017-06-25T00:50:14.201Z,6.80
2017-06-25T00:52:48.908Z,7.80
2017-06-25T00:55:17.144Z,7.30
2017-06-25T00:57:45.405Z,8.70
2017-06-25T01:00:13.684Z,8.60
2017-06-25T01:02:42.215Z,6.80
2017-06-25T01:05:10.701Z,8.00
2017-06-25T01:07:38.972Z,7.50
2017-06-25T01:10:07.224Z,8.00
2017-06-25T01:12:35.457Z,8.00
2017-06-25T01:15:03.829Z,7.60
2017-06-25T01:17:32.460Z,7.63
2017-06-25T01:20:00.731Z,7.23
2017-06-25T01:22:29.007Z,8.23
2017-06-25T01:24:57.243Z,7.40
2017-06-25T01:27:25.916Z,6.60
2017-06-25T01:29:54.575Z,7.23
2017-06-25T01:32:22.824Z,8.03
2017-06-25T01:34:51.060Z,7.87
2017-06-25T01:37:19.833Z,8.53
2017-06-25T01:39:48.065Z,7.17
2017-06-25T01:42:16.315Z,8.53
2017-06-25T01:44:44.589Z,8.10
2017-06-25T01:47:12.823Z,7.70
2017-06-25T01:49:41.054Z,7.57
2017-06-25T01:52:09.340Z,7.87
2017-06-25T01:54:37.575Z,7.40
2017-06-25T01:57:05.820Z,7.90
2017-06-25T01:59:34.082Z,8.47
2017-06-25T02:02:02.316Z,8.60
2017-06-25T02:04:30.555Z,7.10
2017-06-25T02:06:59.377Z,8.07
2017-06-25T02:09:27.920Z,7.63
2017-06-25T02:11:57.178Z,7.60
2017-06-25T02:14:26.673Z,6.80
2017-06-25T02:16:55.658Z,8.07
2017-06-25T02:19:25.029Z,7.30
2017-06-25T02:21:53.539Z,7.50
2017-06-25T02:24:22.159Z,7.23
2017-06-25T02:26:50.401Z,7.23
2017-06-25T02:29:18.674Z,7.23
2017-06-25T02:31:47.303Z,7.77
2017-06-25T02:34:15.577Z,7.23
2017-06-25T02:36:43.862Z,8.33
2017-06-25T02:39:12.108Z,8.10
2017-06-25T02:41:40.412Z,8.10
2017-06-25T02:44:08.652Z,7.33
2017-06-25T02:46:36.887Z,7.60
2017-06-25T02:49:05.132Z,7.83
2017-06-25T02:51:33.423Z,8.57
2017-06-25T02:54:01.668Z,8.50
2017-06-25T02:56:29.909Z,7.90
2017-06-25T02:58:58.584Z,7.93
2017-06-25T03:01:26.824Z,6.83
2017-06-25T03:03:55.074Z,7.90
2017-06-25T03:06:23.498Z,7.83
2017-06-25T03:08:51.798Z,8.20
2017-06-25T03:11:20.664Z,8.40
2017-06-25T03:13:48.950Z,7.60
2017-06-25T03:16:17.194Z,9.00
2017-06-25T03:18:45.442Z,7.90
2017-06-25T03:21:13.697Z,8.70
2017-06-25T03:23:41.936Z,8.80
2017-06-25T03:26:10.592Z,8.13
2017-06-25T03:28:38.870Z,9.37
2017-06-25T03:31:07.112Z,8.97
2017-06-25T03:33:35.361Z,8.83
2017-06-25T03:36:04.031Z,8.43
2017-06-25T03:38:32.269Z,7.77
2017-06-25T03:41:00.507Z,8.63
2017-06-25T03:43:29.196Z,9.77
2017-06-25T03:45:57.826Z,8.07
2017-06-25T03:48:26.068Z,8.97
2017-06-25T03:50:54.716Z,9.00
2017-06-25T03:53:22.982Z,9.17
2017-06-25T03:55:51.205Z,7.30
2017-06-25T03:58:19.496Z,8.47
2017-06-25T04:00:47.743Z,8.63
2017-06-25T04:03:16.388Z,8.63
2017-06-25T04:05:44.673Z,9.50
2017-06-25T04:08:12.903Z,9.00
2017-06-25T04:10:41.140Z,7.30
2017-06-25T04:13:09.411Z,7.70
2017-06-25T04:15:37.645Z,9.20
2017-06-25T04:18:05.876Z,7.43
2017-06-25T04:20:34.645Z,7.23
2017-06-25T04:23:02.892Z,7.60
2017-06-25T04:25:31.125Z,7.40
2017-06-25T04:27:59.807Z,7.70
2017-06-25T04:30:28.043Z,8.07
2017-06-25T04:32:56.284Z,7.87
2017-06-25T04:35:24.561Z,7.40
2017-06-25T04:37:52.792Z,7.33
2017-06-25T04:40:21.041Z,7.17
2017-06-25T04:42:49.314Z,7.80
2017-06-25T04:45:17.810Z,7.00
2017-06-25T04:47:46.055Z,7.50
2017-06-25T04:50:14.333Z,6.40
2017-06-25T04:52:42.843Z,7.00
2017-06-25T04:55:11.080Z,7.73
2017-06-25T04:57:39.361Z,7.30
2017-06-25T05:00:07.879Z,8.03
2017-06-25T05:02:36.528Z,7.10
2017-06-25T05:05:05.039Z,7.90
2017-06-25T05:07:33.572Z,7.80
2017-06-25T05:10:01.820Z,7.83
2017-06-25T05:12:30.487Z,7.87
2017-06-25T05:14:58.753Z,7.90
2017-06-25T05:17:26.983Z,7.50
2017-06-25T05:19:55.644Z,6.93
2017-06-25T05:22:24.508Z,7.40
2017-06-25T05:24:52.872Z,6.40
2017-06-25T05:27:21.218Z,7.50
2017-06-25T05:29:49.456Z,6.13
2017-06-25T05:32:17.694Z,6.80
2017-06-25T05:34:46.039Z,7.03
2017-06-25T05:37:14.256Z,6.97
2017-06-25T05:39:42.507Z,6.70
2017-06-25T05:42:11.186Z,7.13
2017-06-25T05:44:39.431Z,7.17
2017-06-25T05:47:08.060Z,6.87
2017-06-25T05:49:36.355Z,7.27
2017-06-25T05:52:04.581Z,6.50
2017-06-25T05:54:32.821Z,7.00
2017-06-25T05:57:01.427Z,6.50
2017-06-25T05:59:30.171Z,6.77
2017-06-25T06:01:58.959Z,6.70
2017-06-25T06:04:27.207Z,6.57
2017-06-25T06:06:55.451Z,6.97
2017-06-25T06:09:24.087Z,6.20
2017-06-25T06:11:52.370Z,7.10
2017-06-25T06:14:20.606Z,6.13
2017-06-25T06:16:48.848Z,5.80
2017-06-25T06:19:17.155Z,5.80
2017-06-25T06:21:45.392Z,6.40
2017-06-25T06:24:13.648Z,5.27
2017-06-25T06:26:41.905Z,5.40
2017-06-25T06:29:10.275Z,5.50
2017-06-25T06:31:38.647Z,8.57
2017-06-25T06:34:06.945Z,9.33
2017-06-25T06:36:35.187Z,8.90
2017-06-25T06:39:03.447Z,9.93
2017-06-25T06:41:32.149Z,8.90
2017-06-25T06:44:00.391Z,9.33
2017-06-25T06:46:28.666Z,10.37
2017-06-25T06:48:56.952Z,10.40
2017-06-25T06:51:25.282Z,11.03
2017-06-25T06:53:53.519Z,10.40
2017-06-25T06:56:21.822Z,11.03
2017-06-25T06:58:50.068Z,11.57
2017-06-25T07:01:18.744Z,11.03
2017-06-25T07:03:47.044Z,10.93
2017-06-25T07:06:15.308Z,10.57
2017-06-25T07:08:43.963Z,10.50
2017-06-25T07:11:12.554Z,11.37
2017-06-25T07:13:41.158Z,9.17
2017-06-25T07:16:09.375Z,9.20
2017-06-25T07:18:37.638Z,8.53
2017-06-25T07:21:05.955Z,8.37
2017-06-25T07:23:34.178Z,7.43
2017-06-25T07:26:02.484Z,6.70
2017-06-25T07:28:30.724Z,7.43
2017-06-25T07:30:59.367Z,6.90
2017-06-25T07:33:28.127Z,7.40
2017-06-25T07:35:56.402Z,6.70
2017-06-25T07:38:25.364Z,7.07
2017-06-25T07:40:54.027Z,8.10
2017-06-25T07:43:22.669Z,7.87
2017-06-25T07:45:51.183Z,8.27
2017-06-25T07:48:19.543Z,8.07
2017-06-25T07:50:47.783Z,6.87
2017-06-25T07:53:16.056Z,6.90
2017-06-25T07:55:44.322Z,6.60
2017-06-25T07:58:12.563Z,6.40
2017-06-25T08:00:40.878Z,6.10
2017-06-25T08:03:09.165Z,5.33
2017-06-25T08:05:37.790Z,6.37
2017-06-25T08:08:06.053Z,6.07
2017-06-25T08:10:34.431Z,5.60
2017-06-25T08:13:02.705Z,4.73
2017-06-25T08:15:30.994Z,5.63
2017-06-25T08:17:59.258Z,4.93
2017-06-25T08:20:27.484Z,5.17
2017-06-25T08:22:56.131Z,5.40
2017-06-25T08:25:24.405Z,5.30
2017-06-25T08:27:52.639Z,5.37
2017-06-25T08:30:21.017Z,5.73
2017-06-25T08:32:49.289Z,5.97
2017-06-25T08:35:17.531Z,6.43
2017-06-25T08:37:45.765Z,5.90
2017-06-25T08:40:14.169Z,6.13
2017-06-25T08:42:42.647Z,6.30
2017-06-25T08:45:10.863Z,6.10
2017-06-25T08:47:39.140Z,5.80
2017-06-25T08:50:07.388Z,6.20
2017-06-25T08:52:35.615Z,6.40
2017-06-25T08:55:03.929Z,7.20
2017-06-25T08:57:32.340Z,6.67
2017-06-25T09:00:00.975Z,5.97
2017-06-25T09:02:29.259Z,5.97
2017-06-25T09:04:58.675Z,6.90
2017-06-25T09:07:26.944Z,6.80
2017-06-25T09:09:55.229Z,6.43
2017-06-25T09:12:23.504Z,6.80
2017-06-25T09:14:51.732Z,6.87
2017-06-25T09:17:20.008Z,6.37
2017-06-25T09:19:48.241Z,7.43
2017-06-25T09:22:16.811Z,6.20
2017-06-25T09:24:45.287Z,5.40
2017-06-25T09:27:13.532Z,7.20
2017-06-25T09:29:41.763Z,6.67
2017-06-25T09:32:10.037Z,7.20
2017-06-25T09:34:38.271Z,7.30
2017-06-25T09:37:06.608Z,7.37
2017-06-25T09:39:35.028Z,7.67
2017-06-25T09:42:03.280Z,7.80
2017-06-25T09:44:31.515Z,6.27
2017-06-25T09:46:59.827Z,7.00
2017-06-25T09:49:28.077Z,5.93
2017-06-25T09:51:56.713Z,7.20
2017-06-25T09:54:25.027Z,5.93
2017-06-25T09:56:53.281Z,6.90
2017-06-25T09:59:21.519Z,5.83
2017-06-25T10:01:49.799Z,5.97
2017-06-25T10:04:18.022Z,5.20
2017-06-25T10:06:46.291Z,4.77
2017-06-25T10:09:14.567Z,4.10
2017-06-25T10:11:43.053Z,4.40
2017-06-25T10:14:11.325Z,4.23
2017-06-25T10:16:39.604Z,4.40
2017-06-25T10:19:08.182Z,4.57
2017-06-25T10:21:36.498Z,3.50
2017-06-25T10:24:04.829Z,4.40
2017-06-25T10:26:33.056Z,4.10
2017-06-25T10:29:01.296Z,4.00
2017-06-25T10:31:29.569Z,3.80
2017-06-25T10:33:57.812Z,4.23
2017-06-25T10:36:26.048Z,4.07
2017-06-25T10:38:54.728Z,3.80
2017-06-25T10:41:23.405Z,4.30
2017-06-25T10:43:51.784Z,4.13
2017-06-25T10:46:20.522Z,4.40
2017-06-25T10:48:48.760Z,4.13
2017-06-25T10:51:17.385Z,3.67
2017-06-25T10:53:45.661Z,3.50
2017-06-25T10:56:13.896Z,3.60
2017-06-25T10:58:42.751Z,3.80
2017-06-25T11:01:11.017Z,3.87
2017-06-25T11:03:39.246Z,3.53
2017-06-25T11:06:07.484Z,3.63
2017-06-25T11:08:35.747Z,3.90
2017-06-25T11:11:03.989Z,3.70
2017-06-25T11:13:32.252Z,3.40
2017-06-25T11:16:00.550Z,3.67
2017-06-25T11:18:28.785Z,3.50
2017-06-25T11:20:57.537Z,3.63
2017-06-25T11:23:25.821Z,3.93
2017-06-25T11:25:54.039Z,3.40
2017-06-25T11:28:22.269Z,2.73
2017-06-25T11:30:50.552Z,3.97
2017-06-25T11:33:18.788Z,3.23
2017-06-25T11:35:47.036Z,3.50
2017-06-25T11:38:15.299Z,3.30
2017-06-25T11:40:43.548Z,3.13
2017-06-25T11:43:11.784Z,3.27
2017-06-25T11:45:40.065Z,3.07
2017-06-25T11:48:08.301Z,2.90
2017-06-25T11:50:36.950Z,2.70
2017-06-25T11:53:06.658Z,2.57
2017-06-25T11:55:36.036Z,1.87
2017-06-25T11:58:04.271Z,1.80
2017-06-25T12:00:32.570Z,2.07
2017-06-25T12:03:00.792Z,1.80
2017-06-25T12:05:29.031Z,1.67
2017-06-25T12:07:57.285Z,2.13
2017-06-25T12:10:26.121Z,1.60
2017-06-25T12:12:54.362Z,1.80
2017-06-25T12:15:22.643Z,2.47
2017-06-25T12:17:50.879Z,2.93
2017-06-25T12:20:19.131Z,3.47
2017-06-25T12:22:47.409Z,6.30
2017-06-25T12:25:15.744Z,5.23
2017-06-25T12:27:43.993Z,4.83
2017-06-25T12:30:12.553Z,3.90
2017-06-25T12:32:40.794Z,3.50
2017-06-25T12:35:09.025Z,3.50
2017-06-25T12:37:37.684Z,2.90
2017-06-25T12:40:05.936Z,2.90
2017-06-25T12:42:34.172Z,3.07
2017-06-25T12:45:02.452Z,3.10
2017-06-25T12:47:30.720Z,3.10
2017-06-25T12:49:59.365Z,2.97
2017-06-25T12:52:27.616Z,2.67
2017-06-25T12:54:55.879Z,2.63
2017-06-25T12:57:24.108Z,2.90
2017-06-25T12:59:52.879Z,2.50
2017-06-25T13:02:21.106Z,3.13
2017-06-25T13:04:49.345Z,2.90
2017-06-25T13:07:17.604Z,2.20
2017-06-25T13:09:48.556Z,2.70
2017-06-25T13:12:16.900Z,2.60
2017-06-25T13:14:45.622Z,2.80
2017-06-25T13:17:14.380Z,2.23
2017-06-25T13:19:43.597Z,2.40
2017-06-25T13:22:12.740Z,2.20
2017-06-25T13:24:41.002Z,2.30
2017-06-25T13:27:09.410Z,2.10
2017-06-25T13:29:39.320Z,2.30
2017-06-25T13:32:08.701Z,2.27
2017-06-25T13:34:37.323Z,2.00
2017-06-25T13:37:06.199Z,2.60
2017-06-25T13:39:34.441Z,1.90
2017-06-25T13:42:05.197Z,2.63
2017-06-25T13:44:34.169Z,2.93
2017-06-25T13:47:02.810Z,2.90
2017-06-25T13:49:31.093Z,2.60
2017-06-25T13:51:59.591Z,2.40
2017-06-25T13:54:28.878Z,2.40
2017-06-25T13:56:57.100Z,2.53
2017-06-25T13:59:26.136Z,2.40
2017-06-25T14:01:54.408Z,2.60
2017-06-25T14:04:24.632Z,2.30
2017-06-25T14:06:52.955Z,3.23
2017-06-25T14:09:21.299Z,2.67
2017-06-25T14:11:49.525Z,2.17
2017-06-25T14:14:17.808Z,2.57
2017-06-25T14:16:46.745Z,2.37
2017-06-25T14:19:17.594Z,2.90
2017-06-25T14:21:49.326Z,2.10
2017-06-25T14:24:18.123Z,2.40
2017-06-25T14:26:46.357Z,2.20
2017-06-25T14:29:14.606Z,2.57
2017-06-25T14:31:43.292Z,3.70
2017-06-25T14:34:11.941Z,2.60
2017-06-25T14:36:40.212Z,2.63
2017-06-25T14:39:08.554Z,2.10
2017-06-25T14:41:36.800Z,2.43
2017-06-25T14:44:05.038Z,2.50
2017-06-25T14:46:33.313Z,2.30
2017-06-25T14:49:01.553Z,2.20
2017-06-25T14:51:29.876Z,2.37
2017-06-25T14:53:58.145Z,2.93
2017-06-25T14:56:26.417Z,2.50
2017-06-25T14:58:54.667Z,2.83
2017-06-25T15:01:22.944Z,2.87
2017-06-25T15:03:51.386Z,2.50
2017-06-25T15:06:19.671Z,2.23
2017-06-25T15:08:48.333Z,2.17
2017-06-25T15:11:16.603Z,2.40
2017-06-25T15:13:44.841Z,2.47
2017-06-25T15:16:13.240Z,2.77
2017-06-25T15:18:41.633Z,2.83
2017-06-25T15:21:09.876Z,2.47
2017-06-25T15:23:39.137Z,2.57
2017-06-25T15:26:07.366Z,4.60
2017-06-25T15:28:36.311Z,3.37
2017-06-25T15:31:04.982Z,3.70
2017-06-25T15:33:33.335Z,2.70
2017-06-25T15:36:01.691Z,2.80
2017-06-25T15:38:30.011Z,3.13
2017-06-25T15:40:59.020Z,3.03
2017-06-25T15:43:27.360Z,2.73
2017-06-25T15:45:55.624Z,3.00
2017-06-25T15:48:23.858Z,3.00
2017-06-25T15:50:52.106Z,2.80
2017-06-25T15:53:20.644Z,3.10
2017-06-25T15:55:48.868Z,3.10
2017-06-25T15:58:17.170Z,3.43
2017-06-25T16:00:45.498Z,3.20
2017-06-25T16:03:13.731Z,3.47
2017-06-25T16:05:41.985Z,3.60
2017-06-25T16:08:10.267Z,3.97
2017-06-25T16:10:38.897Z,2.60
2017-06-25T16:13:07.189Z,3.60
2017-06-25T16:15:35.683Z,3.60
2017-06-25T16:18:03.922Z,3.30
2017-06-25T16:20:32.171Z,3.63
2017-06-25T16:23:00.511Z,3.10
2017-06-25T16:25:28.747Z,4.50
2017-06-25T16:27:57.838Z,3.70
2017-06-25T16:30:26.685Z,4.30
2017-06-25T16:32:55.332Z,4.00
2017-06-25T16:35:23.556Z,3.37
2017-06-25T16:37:51.936Z,3.13
2017-06-25T16:40:20.578Z,3.73
2017-06-25T16:42:48.816Z,2.90
2017-06-25T16:45:17.088Z,3.00
2017-06-25T16:47:45.327Z,3.20
2017-06-25T16:50:13.961Z,2.87
2017-06-25T16:52:42.263Z,3.37
2017-06-25T16:55:10.495Z,2.67
2017-06-25T16:57:38.817Z,3.90
2017-06-25T17:00:07.068Z,3.67
2017-06-25T17:02:35.305Z,2.73
2017-06-25T17:05:03.933Z,3.60
2017-06-25T17:07:32.226Z,3.50
2017-06-25T17:10:00.503Z,3.60
2017-06-25T17:12:29.001Z,3.80
2017-06-25T17:14:57.471Z,3.80
2017-06-25T17:17:25.699Z,3.40
2017-06-25T17:19:54.015Z,3.40
2017-06-25T17:22:22.586Z,2.90
2017-06-25T17:24:50.902Z,2.50
2017-06-25T17:27:19.150Z,3.60
2017-06-25T17:29:47.413Z,3.80
2017-06-25T17:32:15.657Z,5.20
2017-06-25T17:34:44.284Z,2.80
2017-06-25T17:37:12.590Z,3.27
2017-06-25T17:39:40.828Z,2.93
2017-06-25T17:42:09.118Z,3.17
2017-06-25T17:44:37.394Z,3.23
2017-06-25T17:47:05.648Z,3.07
2017-06-25T17:49:33.895Z,4.00
2017-06-25T17:52:02.184Z,4.50
2017-06-25T17:54:30.506Z,4.03
2017-06-25T17:56:58.744Z,3.83
2017-06-25T17:59:27.043Z,3.13
2017-06-25T18:01:55.306Z,3.60
2017-06-25T18:04:23.750Z,3.90
2017-06-25T18:06:52.397Z,3.67
2017-06-25T18:09:21.600Z,3.50
2017-06-25T18:11:50.018Z,3.83
2017-06-25T18:14:18.454Z,3.90
2017-06-25T18:16:47.606Z,4.30
2017-06-25T18:19:15.862Z,4.20
2017-06-25T18:21:44.693Z,4.10
2017-06-25T18:24:12.971Z,4.60
2017-06-25T18:26:41.225Z,4.00
2017-06-25T18:29:09.525Z,4.10
2017-06-25T18:31:38.375Z,3.90
2017-06-25T18:34:06.806Z,3.80
2017-06-25T18:36:35.085Z,3.90
2017-06-25T18:39:05.826Z,4.00
2017-06-25T18:41:34.901Z,3.90
2017-06-25T18:44:03.164Z,4.03
2017-06-25T18:46:31.426Z,3.40
2017-06-25T18:48:59.715Z,4.10
2017-06-25T18:51:28.465Z,4.50
2017-06-25T18:53:57.256Z,4.10
2017-06-25T18:56:26.585Z,3.60
2017-06-25T18:58:55.011Z,4.07
2017-06-25T19:01:23.286Z,4.17
2017-06-25T19:03:51.593Z,3.90
2017-06-25T19:06:20.062Z,4.13
2017-06-25T19:08:48.915Z,4.13
2017-06-25T19:11:17.171Z,5.03
2017-06-25T19:13:45.537Z,4.87
2017-06-25T19:16:14.030Z,4.77
2017-06-25T19:18:42.487Z,5.03
2017-06-25T19:21:10.807Z,5.63
2017-06-25T19:23:39.196Z,5.70
2017-06-25T19:26:07.844Z,4.93
2017-06-25T19:28:36.416Z,5.50
2017-06-25T19:31:04.819Z,5.93
2017-06-25T19:33:33.304Z,6.53
2017-06-25T19:36:01.747Z,5.87
2017-06-25T19:38:30.433Z,6.17
2017-06-25T19:41:00.023Z,6.27
2017-06-25T19:43:29.526Z,6.50
2017-06-25T19:45:57.973Z,5.90
2017-06-25T19:48:26.564Z,5.70
2017-06-25T19:50:54.833Z,6.00
2017-06-25T19:53:23.302Z,5.90
2017-06-25T19:55:51.759Z,5.70
2017-06-25T19:58:20.074Z,6.23
2017-06-25T20:00:48.428Z,6.30
2017-06-25T20:03:16.715Z,6.27
2017-06-25T20:05:45.211Z,6.70
2017-06-25T20:08:13.835Z,6.20
2017-06-25T20:10:42.393Z,6.20
2017-06-25T20:13:10.703Z,6.00
2017-06-25T20:15:38.966Z,6.23
2017-06-25T20:18:07.240Z,6.30
2017-06-25T20:20:35.913Z,6.83
2017-06-25T20:23:04.263Z,6.70
2017-06-25T20:25:32.475Z,6.53
2017-06-25T20:28:01.189Z,6.37
2017-06-25T20:30:29.896Z,5.60
2017-06-25T20:32:58.128Z,6.10
2017-06-25T20:35:26.449Z,6.30
2017-06-25T20:37:54.916Z,6.90
2017-06-25T20:40:23.660Z,7.30
2017-06-25T20:42:55.702Z,7.33
2017-06-25T20:45:24.442Z,7.63
2017-06-25T20:47:52.957Z,8.23
2017-06-25T20:50:21.856Z,8.50
2017-06-25T20:52:50.287Z,9.50
2017-06-25T20:55:20.324Z,9.57
2017-06-25T20:57:48.637Z,8.83
2017-06-25T21:00:16.969Z,9.10
2017-06-25T21:02:45.724Z,9.87
2017-06-25T21:05:14.377Z,8.03
2017-06-25T21:07:42.844Z,7.83
2017-06-25T21:10:11.252Z,7.87
2017-06-25T21:12:40.465Z,7.37
2017-06-25T21:15:09.117Z,7.10
2017-06-25T21:17:37.389Z,6.33
2017-06-25T21:20:06.071Z,5.10
2017-06-25T21:22:34.297Z,4.90
2017-06-25T21:25:02.567Z,5.17
2017-06-25T21:27:31.922Z,4.93
2017-06-25T21:30:00.144Z,5.10
2017-06-25T21:32:29.162Z,4.93
2017-06-25T21:34:57.625Z,4.40
2017-06-25T21:37:26.260Z,4.87
2017-06-25T21:39:54.540Z,4.70
2017-06-25T21:42:22.816Z,3.70
2017-06-25T21:44:51.143Z,3.60
2017-06-25T21:47:19.413Z,3.27
2017-06-25T21:49:47.762Z,3.63
2017-06-25T21:52:15.984Z,3.37
2017-06-25T21:54:44.559Z,3.37
2017-06-25T21:57:12.825Z,4.33
2017-06-25T21:59:41.568Z,3.23
2017-06-25T22:02:09.899Z,4.27
2017-06-25T22:04:38.633Z,3.63
2017-06-25T22:07:07.255Z,4.33
2017-06-25T22:09:35.601Z,4.80
2017-06-25T22:12:04.083Z,3.73
2017-06-25T22:14:32.684Z,4.30
2017-06-25T22:17:00.953Z,4.00
2017-06-25T22:19:29.548Z,3.73
2017-06-25T22:21:57.767Z,3.40
2017-06-25T22:24:26.015Z,4.00
2017-06-25T22:26:54.255Z,4.07
2017-06-25T22:29:22.503Z,4.57
2017-06-25T22:31:51.115Z,3.73
2017-06-25T22:34:19.349Z,4.20
2017-06-25T22:36:47.584Z,4.30
2017-06-25T22:39:16.258Z,4.33
2017-06-25T22:41:44.483Z,4.03
2017-06-25T22:44:12.792Z,4.43
2017-06-25T22:46:41.046Z,3.77
2017-06-25T22:49:09.279Z,4.00
2017-06-25T22:51:37.903Z,4.60
2017-06-25T22:54:06.179Z,4.10
2017-06-25T22:56:34.641Z,4.57
2017-06-25T22:59:02.859Z,4.70
2017-06-25T23:01:31.130Z,5.40
2017-06-25T23:03:59.363Z,4.60
2017-06-25T23:06:27.599Z,4.73
2017-06-25T23:08:55.880Z,5.60
2017-06-25T23:11:24.108Z,4.13
2017-06-25T23:13:52.344Z,4.30
2017-06-25T23:16:20.606Z,5.50
2017-06-25T23:18:48.848Z,4.60
2017-06-25T23:21:17.353Z,3.77
2017-06-25T23:23:45.631Z,4.20
2017-06-25T23:26:13.867Z,4.60
2017-06-25T23:28:42.112Z,3.70
2017-06-25T23:31:10.788Z,4.87
2017-06-25T23:33:40.028Z,4.53
2017-06-25T23:36:08.251Z,4.57
2017-06-25T23:38:36.521Z,4.30
2017-06-25T23:41:04.752Z,4.50
2017-06-25T23:43:32.980Z,3.83
2017-06-25T23:46:01.627Z,4.27
2017-06-25T23:48:29.860Z,5.57
2017-06-25T23:50:58.102Z,3.80
2017-06-25T23:53:26.372Z,3.60
2017-06-25T23:55:54.604Z,3.83
2017-06-25T23:58:22.844Z,3.53
